sensor_id;sensor_type;location;lat;lon;timestamp;temperature;humidity
46029;DHT22;31763;48.180;7.904;2022-12-29T00:00:08;10.70;99.90
46029;DHT22;31763;48.180;7.904;2022-12-29T00:02:35;10.70;99.90
46029;DHT22;31763;48.180;7.904;2022-12-29T00:05:03;10.70;99.90
46029;DHT22;31763;48.180;7.904;2022-12-29T00:07:29;10.80;99.90
46029;DHT22;31763;48.180;7.904;2022-12-29T00:09:56;10.80;99.90
46029;DHT22;31763;48.180;7.904;2022-12-29T00:12:23;10.70;99.90
46029;DHT22;31763;48.180;7.904;2022-12-29T00:14:50;10.70;99.90
46029;DHT22;31763;48.180;7.904;2022-12-29T00:17:35;10.70;99.90
46029;DHT22;31763;48.180;7.904;2022-12-29T00:20:02;10.70;99.90
46029;DHT22;31763;48.180;7.904;2022-12-29T00:22:48;10.80;99.90
46029;DHT22;31763;48.180;7.904;2022-12-29T00:25:50;10.90;99.90
46029;DHT22;31763;48.180;7.904;2022-12-29T00:28:35;10.80;99.90
46029;DHT22;31763;48.180;7.904;2022-12-29T00:31:20;10.80;99.90
46029;DHT22;31763;48.180;7.904;2022-12-29T00:34:09;10.80;99.90
46029;DHT22;31763;48.180;7.904;2022-12-29T00:36:56;11.00;99.90
46029;DHT22;31763;48.180;7.904;2022-12-29T00:39:23;11.10;99.90
46029;DHT22;31763;48.180;7.904;2022-12-29T00:42:09;11.00;99.90
46029;DHT22;31763;48.180;7.904;2022-12-29T00:44:54;11.10;99.90
46029;DHT22;31763;48.180;7.904;2022-12-29T00:47:21;11.00;99.90
46029;DHT22;31763;48.180;7.904;2022-12-29T00:49:48;11.00;99.90
46029;DHT22;31763;48.180;7.904;2022-12-29T00:52:15;11.20;99.90
46029;DHT22;31763;48.180;7.904;2022-12-29T00:54:42;11.10;99.90
46029;DHT22;31763;48.180;7.904;2022-12-29T00:57:11;11.20;99.90
46029;DHT22;31763;48.180;7.904;2022-12-29T00:59:40;11.10;99.90
46029;DHT22;31763;48.180;7.904;2022-12-29T01:02:08;11.20;99.90
46029;DHT22;31763;48.180;7.904;2022-12-29T01:04:37;11.20;99.90
46029;DHT22;31763;48.180;7.904;2022-12-29T01:07:04;11.20;99.90
46029;DHT22;31763;48.180;7.904;2022-12-29T01:09:31;11.10;99.90
46029;DHT22;31763;48.180;7.904;2022-12-29T01:12:17;11.20;99.90
46029;DHT22;31763;48.180;7.904;2022-12-29T01:15:04;11.10;99.90
46029;DHT22;31763;48.180;7.904;2022-12-29T01:17:32;11.20;99.90
46029;DHT22;31763;48.180;7.904;2022-12-29T01:20:00;11.20;99.90
46029;DHT22;31763;48.180;7.904;2022-12-29T01:22:28;11.00;99.90
46029;DHT22;31763;48.180;7.904;2022-12-29T01:24:54;11.10;99.90
46029;DHT22;31763;48.180;7.904;2022-12-29T01:27:21;11.20;99.90
46029;DHT22;31763;48.180;7.904;2022-12-29T01:29:48;11.00;99.90
46029;DHT22;31763;48.180;7.904;2022-12-29T01:32:15;11.10;99.90
46029;DHT22;31763;48.180;7.904;2022-12-29T01:34:43;11.10;99.90
46029;DHT22;31763;48.180;7.904;2022-12-29T01:37:10;11.20;99.90
46029;DHT22;31763;48.180;7.904;2022-12-29T01:39:37;11.00;99.90
46029;DHT22;31763;48.180;7.904;2022-12-29T01:42:04;11.00;99.90
46029;DHT22;31763;48.180;7.904;2022-12-29T01:44:55;11.00;99.90
46029;DHT22;31763;48.180;7.904;2022-12-29T01:47:57;11.00;99.90
46029;DHT22;31763;48.180;7.904;2022-12-29T01:50:26;11.00;99.90
46029;DHT22;31763;48.180;7.904;2022-12-29T01:53:03;11.00;99.90
46029;DHT22;31763;48.180;7.904;2022-12-29T01:55:36;11.00;99.90
46029;DHT22;31763;48.180;7.904;2022-12-29T01:58:06;11.00;99.90
46029;DHT22;31763;48.180;7.904;2022-12-29T02:00:33;11.10;99.90
46029;DHT22;31763;48.180;7.904;2022-12-29T02:03:00;11.00;99.90
46029;DHT22;31763;48.180;7.904;2022-12-29T02:05:33;11.00;99.90
46029;DHT22;31763;48.180;7.904;2022-12-29T02:08:04;11.00;99.90
46029;DHT22;31763;48.180;7.904;2022-12-29T02:10:32;10.90;99.90
46029;DHT22;31763;48.180;7.904;2022-12-29T02:13:01;10.80;99.90
46029;DHT22;31763;48.180;7.904;2022-12-29T02:21:51;10.70;99.90
46029;DHT22;31763;48.180;7.904;2022-12-29T02:27:48;10.80;99.90
46029;DHT22;31763;48.180;7.904;2022-12-29T02:30:38;10.80;99.90
46029;DHT22;31763;48.180;7.904;2022-12-29T02:45:04;10.50;99.90
46029;DHT22;31763;48.180;7.904;2022-12-29T02:48:03;10.50;99.90
46029;DHT22;31763;48.180;7.904;2022-12-29T02:50:37;10.50;99.90
46029;DHT22;31763;48.180;7.904;2022-12-29T02:53:09;10.50;99.90
46029;DHT22;31763;48.180;7.904;2022-12-29T02:55:38;10.30;99.90
46029;DHT22;31763;48.180;7.904;2022-12-29T02:58:17;10.40;99.90
46029;DHT22;31763;48.180;7.904;2022-12-29T03:04:10;10.40;99.90
46029;DHT22;31763;48.180;7.904;2022-12-29T03:07:00;10.40;99.90
46029;DHT22;31763;48.180;7.904;2022-12-29T03:12:35;10.40;99.90
46029;DHT22;31763;48.180;7.904;2022-12-29T03:15:34;10.30;99.90
46029;DHT22;31763;48.180;7.904;2022-12-29T03:18:41;10.30;99.90
46029;DHT22;31763;48.180;7.904;2022-12-29T03:21:43;10.30;99.90
46029;DHT22;31763;48.180;7.904;2022-12-29T03:24:38;10.20;99.90
46029;DHT22;31763;48.180;7.904;2022-12-29T03:27:12;10.20;99.90
46029;DHT22;31763;48.180;7.904;2022-12-29T03:29:50;10.20;99.90
46029;DHT22;31763;48.180;7.904;2022-12-29T03:32:26;10.00;99.90
46029;DHT22;31763;48.180;7.904;2022-12-29T03:34:55;10.10;99.90
46029;DHT22;31763;48.180;7.904;2022-12-29T03:37:27;10.00;99.90
46029;DHT22;31763;48.180;7.904;2022-12-29T03:39:57;10.10;99.90
46029;DHT22;31763;48.180;7.904;2022-12-29T03:42:27;10.10;99.90
46029;DHT22;31763;48.180;7.904;2022-12-29T03:44:56;10.00;99.90
46029;DHT22;31763;48.180;7.904;2022-12-29T03:47:24;10.00;99.90
46029;DHT22;31763;48.180;7.904;2022-12-29T03:49:52;9.90;99.90
46029;DHT22;31763;48.180;7.904;2022-12-29T03:52:19;9.90;99.90
46029;DHT22;31763;48.180;7.904;2022-12-29T03:54:46;9.80;99.90
46029;DHT22;31763;48.180;7.904;2022-12-29T03:57:13;9.90;99.90
46029;DHT22;31763;48.180;7.904;2022-12-29T03:59:40;9.90;99.90
46029;DHT22;31763;48.180;7.904;2022-12-29T04:02:06;9.90;99.90
46029;DHT22;31763;48.180;7.904;2022-12-29T04:04:33;9.90;99.90
46029;DHT22;31763;48.180;7.904;2022-12-29T04:07:00;9.90;99.90
46029;DHT22;31763;48.180;7.904;2022-12-29T04:09:27;9.90;99.90
46029;DHT22;31763;48.180;7.904;2022-12-29T04:11:54;9.90;99.90
46029;DHT22;31763;48.180;7.904;2022-12-29T04:14:38;9.80;99.90
46029;DHT22;31763;48.180;7.904;2022-12-29T04:17:19;9.90;99.90
46029;DHT22;31763;48.180;7.904;2022-12-29T04:19:56;9.90;99.90
46029;DHT22;31763;48.180;7.904;2022-12-29T04:22:43;10.00;99.90
46029;DHT22;31763;48.180;7.904;2022-12-29T04:25:10;9.90;99.90
46029;DHT22;31763;48.180;7.904;2022-12-29T04:27:37;10.00;99.90
46029;DHT22;31763;48.180;7.904;2022-12-29T04:30:04;10.00;99.90
46029;DHT22;31763;48.180;7.904;2022-12-29T04:32:31;10.00;99.90
46029;DHT22;31763;48.180;7.904;2022-12-29T04:34:58;9.90;99.90
46029;DHT22;31763;48.180;7.904;2022-12-29T04:37:25;9.90;99.90
46029;DHT22;31763;48.180;7.904;2022-12-29T04:39:52;10.00;99.90
46029;DHT22;31763;48.180;7.904;2022-12-29T04:42:18;9.80;99.90
46029;DHT22;31763;48.180;7.904;2022-12-29T04:44:45;9.80;99.90
46029;DHT22;31763;48.180;7.904;2022-12-29T04:47:12;9.80;99.90
46029;DHT22;31763;48.180;7.904;2022-12-29T04:49:39;9.80;99.90
46029;DHT22;31763;48.180;7.904;2022-12-29T04:52:05;9.80;99.90
46029;DHT22;31763;48.180;7.904;2022-12-29T04:54:34;9.70;99.90
46029;DHT22;31763;48.180;7.904;2022-12-29T04:57:01;9.80;99.90
46029;DHT22;31763;48.180;7.904;2022-12-29T04:59:28;9.90;99.90
46029;DHT22;31763;48.180;7.904;2022-12-29T05:01:55;9.90;99.90
46029;DHT22;31763;48.180;7.904;2022-12-29T05:04:21;9.90;99.90
46029;DHT22;31763;48.180;7.904;2022-12-29T05:06:51;10.00;99.90
46029;DHT22;31763;48.180;7.904;2022-12-29T05:09:18;10.00;99.90
46029;DHT22;31763;48.180;7.904;2022-12-29T05:11:45;9.90;99.90
46029;DHT22;31763;48.180;7.904;2022-12-29T05:14:11;9.90;99.90
46029;DHT22;31763;48.180;7.904;2022-12-29T05:16:38;10.00;99.90
46029;DHT22;31763;48.180;7.904;2022-12-29T05:19:05;9.90;99.90
46029;DHT22;31763;48.180;7.904;2022-12-29T05:21:33;10.10;99.90
46029;DHT22;31763;48.180;7.904;2022-12-29T05:23:59;10.00;99.90
46029;DHT22;31763;48.180;7.904;2022-12-29T05:26:26;10.00;99.90
46029;DHT22;31763;48.180;7.904;2022-12-29T05:28:53;9.90;99.90
46029;DHT22;31763;48.180;7.904;2022-12-29T05:31:20;10.00;99.90
46029;DHT22;31763;48.180;7.904;2022-12-29T05:33:47;10.10;99.90
46029;DHT22;31763;48.180;7.904;2022-12-29T05:36:13;10.20;99.90
46029;DHT22;31763;48.180;7.904;2022-12-29T05:38:40;10.20;99.90
46029;DHT22;31763;48.180;7.904;2022-12-29T05:41:07;10.20;99.90
46029;DHT22;31763;48.180;7.904;2022-12-29T05:43:35;10.40;99.90
46029;DHT22;31763;48.180;7.904;2022-12-29T05:46:02;10.30;99.90
46029;DHT22;31763;48.180;7.904;2022-12-29T05:48:29;10.40;99.90
46029;DHT22;31763;48.180;7.904;2022-12-29T05:51:03;10.40;99.90
46029;DHT22;31763;48.180;7.904;2022-12-29T05:53:30;10.50;99.90
46029;DHT22;31763;48.180;7.904;2022-12-29T05:55:57;10.30;99.90
46029;DHT22;31763;48.180;7.904;2022-12-29T05:58:24;10.40;99.90
46029;DHT22;31763;48.180;7.904;2022-12-29T06:00:51;10.50;99.90
46029;DHT22;31763;48.180;7.904;2022-12-29T06:03:17;10.50;99.90
46029;DHT22;31763;48.180;7.904;2022-12-29T06:05:45;10.50;99.90
46029;DHT22;31763;48.180;7.904;2022-12-29T06:08:13;10.40;99.90
46029;DHT22;31763;48.180;7.904;2022-12-29T06:10:39;10.50;99.90
46029;DHT22;31763;48.180;7.904;2022-12-29T06:13:06;10.40;99.90
46029;DHT22;31763;48.180;7.904;2022-12-29T06:15:34;10.40;99.90
46029;DHT22;31763;48.180;7.904;2022-12-29T06:18:01;10.30;99.90
46029;DHT22;31763;48.180;7.904;2022-12-29T06:20:28;10.40;99.90
46029;DHT22;31763;48.180;7.904;2022-12-29T06:22:55;10.30;99.90
46029;DHT22;31763;48.180;7.904;2022-12-29T06:25:22;10.40;99.90
46029;DHT22;31763;48.180;7.904;2022-12-29T06:27:49;10.50;99.90
46029;DHT22;31763;48.180;7.904;2022-12-29T06:30:15;10.40;99.90
46029;DHT22;31763;48.180;7.904;2022-12-29T06:32:43;10.40;99.90
46029;DHT22;31763;48.180;7.904;2022-12-29T06:35:10;10.40;99.90
46029;DHT22;31763;48.180;7.904;2022-12-29T06:37:37;10.50;99.90
46029;DHT22;31763;48.180;7.904;2022-12-29T06:40:05;10.30;99.90
46029;DHT22;31763;48.180;7.904;2022-12-29T06:42:32;10.30;99.90
46029;DHT22;31763;48.180;7.904;2022-12-29T06:44:59;10.20;99.90
46029;DHT22;31763;48.180;7.904;2022-12-29T06:47:27;10.20;99.90
46029;DHT22;31763;48.180;7.904;2022-12-29T06:49:54;10.20;99.90
46029;DHT22;31763;48.180;7.904;2022-12-29T06:52:20;10.10;99.90
46029;DHT22;31763;48.180;7.904;2022-12-29T06:54:47;10.10;99.90
46029;DHT22;31763;48.180;7.904;2022-12-29T06:57:14;10.10;99.90
46029;DHT22;31763;48.180;7.904;2022-12-29T06:59:41;10.20;99.90
46029;DHT22;31763;48.180;7.904;2022-12-29T07:02:10;10.10;99.90
46029;DHT22;31763;48.180;7.904;2022-12-29T07:04:37;10.20;99.90
46029;DHT22;31763;48.180;7.904;2022-12-29T07:07:04;10.20;99.90
46029;DHT22;31763;48.180;7.904;2022-12-29T07:09:31;10.20;99.90
46029;DHT22;31763;48.180;7.904;2022-12-29T07:11:59;10.20;99.90
46029;DHT22;31763;48.180;7.904;2022-12-29T07:14:25;10.20;99.90
46029;DHT22;31763;48.180;7.904;2022-12-29T07:16:52;10.30;99.90
46029;DHT22;31763;48.180;7.904;2022-12-29T07:19:19;10.30;99.90
46029;DHT22;31763;48.180;7.904;2022-12-29T07:21:46;10.40;99.90
46029;DHT22;31763;48.180;7.904;2022-12-29T07:24:13;10.30;99.90
46029;DHT22;31763;48.180;7.904;2022-12-29T07:26:40;10.40;99.90
46029;DHT22;31763;48.180;7.904;2022-12-29T07:29:07;10.40;99.90
46029;DHT22;31763;48.180;7.904;2022-12-29T07:31:34;10.40;99.90
46029;DHT22;31763;48.180;7.904;2022-12-29T07:34:01;10.50;99.90
46029;DHT22;31763;48.180;7.904;2022-12-29T07:36:28;10.50;99.90
46029;DHT22;31763;48.180;7.904;2022-12-29T07:39:00;10.50;99.90
46029;DHT22;31763;48.180;7.904;2022-12-29T07:41:27;10.50;99.90
46029;DHT22;31763;48.180;7.904;2022-12-29T07:43:54;10.40;99.90
46029;DHT22;31763;48.180;7.904;2022-12-29T07:46:21;10.30;99.90
46029;DHT22;31763;48.180;7.904;2022-12-29T07:49:07;10.40;99.90
46029;DHT22;31763;48.180;7.904;2022-12-29T07:51:34;10.40;99.90
46029;DHT22;31763;48.180;7.904;2022-12-29T07:54:01;10.30;99.90
46029;DHT22;31763;48.180;7.904;2022-12-29T07:56:28;10.40;99.90
46029;DHT22;31763;48.180;7.904;2022-12-29T07:58:55;10.30;99.90
46029;DHT22;31763;48.180;7.904;2022-12-29T08:01:21;10.40;99.90
46029;DHT22;31763;48.180;7.904;2022-12-29T08:03:50;10.40;99.90
46029;DHT22;31763;48.180;7.904;2022-12-29T08:06:22;10.30;99.90
46029;DHT22;31763;48.180;7.904;2022-12-29T08:08:49;10.30;99.90
46029;DHT22;31763;48.180;7.904;2022-12-29T08:11:16;10.40;99.90
46029;DHT22;31763;48.180;7.904;2022-12-29T08:13:43;10.40;99.90
46029;DHT22;31763;48.180;7.904;2022-12-29T08:16:10;10.40;99.90
46029;DHT22;31763;48.180;7.904;2022-12-29T08:18:36;10.40;99.90
46029;DHT22;31763;48.180;7.904;2022-12-29T08:21:04;10.50;99.90
46029;DHT22;31763;48.180;7.904;2022-12-29T08:23:32;10.40;99.90
46029;DHT22;31763;48.180;7.904;2022-12-29T08:26:00;10.40;99.90
46029;DHT22;31763;48.180;7.904;2022-12-29T08:28:28;10.40;99.90
46029;DHT22;31763;48.180;7.904;2022-12-29T08:30:58;10.50;99.90
46029;DHT22;31763;48.180;7.904;2022-12-29T08:33:26;10.60;99.90
46029;DHT22;31763;48.180;7.904;2022-12-29T08:35:59;10.60;99.90
46029;DHT22;31763;48.180;7.904;2022-12-29T08:38:27;10.60;99.90
46029;DHT22;31763;48.180;7.904;2022-12-29T08:40:56;10.60;99.90
46029;DHT22;31763;48.180;7.904;2022-12-29T08:43:24;10.60;99.90
46029;DHT22;31763;48.180;7.904;2022-12-29T08:45:52;10.60;99.90
46029;DHT22;31763;48.180;7.904;2022-12-29T08:48:18;10.70;99.90
46029;DHT22;31763;48.180;7.904;2022-12-29T08:50:48;10.70;99.90
46029;DHT22;31763;48.180;7.904;2022-12-29T08:53:16;10.80;99.90
46029;DHT22;31763;48.180;7.904;2022-12-29T08:55:51;10.60;99.90
46029;DHT22;31763;48.180;7.904;2022-12-29T08:58:30;10.70;99.90
46029;DHT22;31763;48.180;7.904;2022-12-29T09:00:58;10.70;99.90
46029;DHT22;31763;48.180;7.904;2022-12-29T09:03:25;10.80;99.90
46029;DHT22;31763;48.180;7.904;2022-12-29T09:06:14;10.90;99.90
46029;DHT22;31763;48.180;7.904;2022-12-29T09:08:41;10.80;99.90
46029;DHT22;31763;48.180;7.904;2022-12-29T09:11:18;10.70;99.90
46029;DHT22;31763;48.180;7.904;2022-12-29T09:13:47;10.80;99.90
46029;DHT22;31763;48.180;7.904;2022-12-29T09:16:15;11.00;99.90
46029;DHT22;31763;48.180;7.904;2022-12-29T09:18:43;11.00;99.90
46029;DHT22;31763;48.180;7.904;2022-12-29T09:21:11;11.00;99.90
46029;DHT22;31763;48.180;7.904;2022-12-29T09:23:39;11.00;99.90
46029;DHT22;31763;48.180;7.904;2022-12-29T09:26:07;11.10;99.90
46029;DHT22;31763;48.180;7.904;2022-12-29T09:28:35;10.90;99.90
46029;DHT22;31763;48.180;7.904;2022-12-29T09:31:02;11.00;99.90
46029;DHT22;31763;48.180;7.904;2022-12-29T09:33:29;11.10;99.90
46029;DHT22;31763;48.180;7.904;2022-12-29T09:35:57;11.10;99.90
46029;DHT22;31763;48.180;7.904;2022-12-29T09:38:25;11.10;99.90
46029;DHT22;31763;48.180;7.904;2022-12-29T09:41:19;11.10;99.90
46029;DHT22;31763;48.180;7.904;2022-12-29T09:44:12;11.10;99.90
46029;DHT22;31763;48.180;7.904;2022-12-29T09:46:47;11.10;99.90
46029;DHT22;31763;48.180;7.904;2022-12-29T09:49:40;11.10;99.90
46029;DHT22;31763;48.180;7.904;2022-12-29T09:52:20;11.20;99.90
46029;DHT22;31763;48.180;7.904;2022-12-29T09:55:13;11.20;99.90
46029;DHT22;31763;48.180;7.904;2022-12-29T10:04:40;11.20;99.90
46029;DHT22;31763;48.180;7.904;2022-12-29T10:27:59;10.90;99.90
46029;DHT22;31763;48.180;7.904;2022-12-29T10:31:22;10.90;99.90
46029;DHT22;31763;48.180;7.904;2022-12-29T10:34:56;10.90;99.90
46029;DHT22;31763;48.180;7.904;2022-12-29T10:41:41;11.00;99.90
46029;DHT22;31763;48.180;7.904;2022-12-29T10:44:14;11.00;99.90
46029;DHT22;31763;48.180;7.904;2022-12-29T10:46:43;10.90;99.90
46029;DHT22;31763;48.180;7.904;2022-12-29T10:49:17;10.90;99.90
46029;DHT22;31763;48.180;7.904;2022-12-29T10:51:48;10.90;99.90
46029;DHT22;31763;48.180;7.904;2022-12-29T10:54:39;10.80;99.90
46029;DHT22;31763;48.180;7.904;2022-12-29T10:57:26;10.80;99.90
46029;DHT22;31763;48.180;7.904;2022-12-29T10:59:55;10.70;99.90
46029;DHT22;31763;48.180;7.904;2022-12-29T11:02:50;10.60;99.90
46029;DHT22;31763;48.180;7.904;2022-12-29T11:05:49;10.60;99.90
46029;DHT22;31763;48.180;7.904;2022-12-29T11:08:26;10.40;99.90
46029;DHT22;31763;48.180;7.904;2022-12-29T11:11:02;10.30;99.90
46029;DHT22;31763;48.180;7.904;2022-12-29T11:13:51;10.10;99.90
46029;DHT22;31763;48.180;7.904;2022-12-29T11:16:33;10.20;99.90
46029;DHT22;31763;48.180;7.904;2022-12-29T11:19:01;10.10;99.90
46029;DHT22;31763;48.180;7.904;2022-12-29T11:21:36;10.10;99.90
46029;DHT22;31763;48.180;7.904;2022-12-29T11:26:54;10.10;99.90
46029;DHT22;31763;48.180;7.904;2022-12-29T11:29:27;10.20;99.90
46029;DHT22;31763;48.180;7.904;2022-12-29T11:31:57;10.20;99.90
46029;DHT22;31763;48.180;7.904;2022-12-29T11:34:34;10.30;99.90
46029;DHT22;31763;48.180;7.904;2022-12-29T11:37:31;10.40;99.90
46029;DHT22;31763;48.180;7.904;2022-12-29T11:40:14;10.50;99.90
46029;DHT22;31763;48.180;7.904;2022-12-29T11:42:55;10.50;99.90
46029;DHT22;31763;48.180;7.904;2022-12-29T11:45:25;10.50;99.90
46029;DHT22;31763;48.180;7.904;2022-12-29T11:47:58;10.60;99.90
46029;DHT22;31763;48.180;7.904;2022-12-29T11:50:39;10.50;99.90
46029;DHT22;31763;48.180;7.904;2022-12-29T11:54:03;10.50;99.90
46029;DHT22;31763;48.180;7.904;2022-12-29T11:56:15;10.50;99.90
46029;DHT22;31763;48.180;7.904;2022-12-29T11:58:43;10.50;99.90
46029;DHT22;31763;48.180;7.904;2022-12-29T12:01:15;10.50;99.90
46029;DHT22;31763;48.180;7.904;2022-12-29T12:06:38;10.70;99.90
46029;DHT22;31763;48.180;7.904;2022-12-29T12:09:25;10.70;99.90
46029;DHT22;31763;48.180;7.904;2022-12-29T12:11:56;10.70;99.90
46029;DHT22;31763;48.180;7.904;2022-12-29T12:14:30;10.70;99.90
46029;DHT22;31763;48.180;7.904;2022-12-29T12:17:04;10.70;99.90
46029;DHT22;31763;48.180;7.904;2022-12-29T12:22:59;10.80;99.90
46029;DHT22;31763;48.180;7.904;2022-12-29T12:25:38;10.80;99.90
46029;DHT22;31763;48.180;7.904;2022-12-29T12:28:20;10.90;99.90
46029;DHT22;31763;48.180;7.904;2022-12-29T12:30:58;11.00;99.90
46029;DHT22;31763;48.180;7.904;2022-12-29T12:33:41;11.00;99.90
46029;DHT22;31763;48.180;7.904;2022-12-29T12:39:49;11.00;99.90
46029;DHT22;31763;48.180;7.904;2022-12-29T12:49:23;11.00;99.90
46029;DHT22;31763;48.180;7.904;2022-12-29T12:55:18;11.10;99.90
46029;DHT22;31763;48.180;7.904;2022-12-29T12:58:04;11.10;99.90
46029;DHT22;31763;48.180;7.904;2022-12-29T13:00:58;11.10;99.90
46029;DHT22;31763;48.180;7.904;2022-12-29T13:10:13;10.90;99.90
46029;DHT22;31763;48.180;7.904;2022-12-29T13:13:49;10.90;99.90
46029;DHT22;31763;48.180;7.904;2022-12-29T13:16:38;10.90;99.90
46029;DHT22;31763;48.180;7.904;2022-12-29T13:24:52;10.90;99.90
46029;DHT22;31763;48.180;7.904;2022-12-29T13:27:54;10.90;99.90
46029;DHT22;31763;48.180;7.904;2022-12-29T13:30:30;10.90;99.90
46029;DHT22;31763;48.180;7.904;2022-12-29T13:36:04;10.90;99.90
46029;DHT22;31763;48.180;7.904;2022-12-29T13:38:39;11.00;99.90
46029;DHT22;31763;48.180;7.904;2022-12-29T13:41:14;11.00;99.90
46029;DHT22;31763;48.180;7.904;2022-12-29T13:43:46;11.10;99.90
46029;DHT22;31763;48.180;7.904;2022-12-29T13:46:19;11.00;99.90
46029;DHT22;31763;48.180;7.904;2022-12-29T13:49:04;11.00;99.90
46029;DHT22;31763;48.180;7.904;2022-12-29T13:51:34;11.00;99.90
46029;DHT22;31763;48.180;7.904;2022-12-29T13:55:01;11.10;99.90
46029;DHT22;31763;48.180;7.904;2022-12-29T14:00:21;11.00;99.90
46029;DHT22;31763;48.180;7.904;2022-12-29T14:03:54;11.00;99.90
46029;DHT22;31763;48.180;7.904;2022-12-29T14:06:27;11.00;99.90
46029;DHT22;31763;48.180;7.904;2022-12-29T14:09:02;11.00;99.90
46029;DHT22;31763;48.180;7.904;2022-12-29T14:11:36;10.90;99.90
46029;DHT22;31763;48.180;7.904;2022-12-29T14:14:28;11.00;99.90
46029;DHT22;31763;48.180;7.904;2022-12-29T14:17:10;11.00;99.90
46029;DHT22;31763;48.180;7.904;2022-12-29T14:19:42;11.00;99.90
46029;DHT22;31763;48.180;7.904;2022-12-29T14:22:10;11.00;99.90
46029;DHT22;31763;48.180;7.904;2022-12-29T14:24:43;10.90;99.90
46029;DHT22;31763;48.180;7.904;2022-12-29T14:34:52;10.90;99.90
46029;DHT22;31763;48.180;7.904;2022-12-29T14:37:30;10.80;99.90
46029;DHT22;31763;48.180;7.904;2022-12-29T14:42:46;10.70;99.90
46029;DHT22;31763;48.180;7.904;2022-12-29T14:47:44;10.60;99.90
46029;DHT22;31763;48.180;7.904;2022-12-29T14:52:57;10.60;99.90
46029;DHT22;31763;48.180;7.904;2022-12-29T14:55:39;10.60;99.90
46029;DHT22;31763;48.180;7.904;2022-12-29T15:00:41;10.70;99.90
46029;DHT22;31763;48.180;7.904;2022-12-29T15:03:53;10.60;99.90
46029;DHT22;31763;48.180;7.904;2022-12-29T15:06:13;10.60;99.90
46029;DHT22;31763;48.180;7.904;2022-12-29T15:08:52;10.60;99.90
46029;DHT22;31763;48.180;7.904;2022-12-29T15:11:24;10.50;99.90
46029;DHT22;31763;48.180;7.904;2022-12-29T15:13:55;10.50;99.90
46029;DHT22;31763;48.180;7.904;2022-12-29T15:16:30;10.60;99.90
46029;DHT22;31763;48.180;7.904;2022-12-29T15:18:59;10.60;99.90
46029;DHT22;31763;48.180;7.904;2022-12-29T15:21:29;10.50;99.90
46029;DHT22;31763;48.180;7.904;2022-12-29T15:23:58;10.60;99.90
46029;DHT22;31763;48.180;7.904;2022-12-29T15:26:38;10.50;99.90
46029;DHT22;31763;48.180;7.904;2022-12-29T15:29:33;10.50;99.90
46029;DHT22;31763;48.180;7.904;2022-12-29T15:34:47;10.50;99.90
46029;DHT22;31763;48.180;7.904;2022-12-29T15:37:35;10.50;99.90
46029;DHT22;31763;48.180;7.904;2022-12-29T15:40:02;10.40;99.90
46029;DHT22;31763;48.180;7.904;2022-12-29T15:45:33;10.30;99.90
46029;DHT22;31763;48.180;7.904;2022-12-29T15:48:03;10.30;99.90
46029;DHT22;31763;48.180;7.904;2022-12-29T15:50:32;10.30;99.90
46029;DHT22;31763;48.180;7.904;2022-12-29T15:53:01;10.30;99.90
46029;DHT22;31763;48.180;7.904;2022-12-29T15:55:35;10.30;99.90
46029;DHT22;31763;48.180;7.904;2022-12-29T15:58:05;10.20;99.90
46029;DHT22;31763;48.180;7.904;2022-12-29T16:00:50;10.40;99.90
46029;DHT22;31763;48.180;7.904;2022-12-29T16:03:20;10.20;99.90
46029;DHT22;31763;48.180;7.904;2022-12-29T16:05:56;10.30;99.90
46029;DHT22;31763;48.180;7.904;2022-12-29T16:08:36;10.30;99.90
46029;DHT22;31763;48.180;7.904;2022-12-29T16:11:22;10.30;99.90
46029;DHT22;31763;48.180;7.904;2022-12-29T16:14:17;10.20;99.90
46029;DHT22;31763;48.180;7.904;2022-12-29T16:16:47;10.20;99.90
46029;DHT22;31763;48.180;7.904;2022-12-29T16:19:21;10.20;99.90
46029;DHT22;31763;48.180;7.904;2022-12-29T16:21:58;10.20;99.90
46029;DHT22;31763;48.180;7.904;2022-12-29T16:24:30;10.20;99.90
46029;DHT22;31763;48.180;7.904;2022-12-29T16:27:16;10.20;99.90
46029;DHT22;31763;48.180;7.904;2022-12-29T16:29:49;10.20;99.90
46029;DHT22;31763;48.180;7.904;2022-12-29T16:32:30;10.20;99.90
46029;DHT22;31763;48.180;7.904;2022-12-29T16:35:17;10.10;99.90
46029;DHT22;31763;48.180;7.904;2022-12-29T16:40:55;10.10;99.90
46029;DHT22;31763;48.180;7.904;2022-12-29T16:43:33;10.00;99.90
46029;DHT22;31763;48.180;7.904;2022-12-29T16:46:26;10.10;99.90
46029;DHT22;31763;48.180;7.904;2022-12-29T16:48:55;10.10;99.90
46029;DHT22;31763;48.180;7.904;2022-12-29T16:51:30;10.00;99.90
46029;DHT22;31763;48.180;7.904;2022-12-29T16:54:02;10.00;99.90
46029;DHT22;31763;48.180;7.904;2022-12-29T16:56:33;10.00;99.90
46029;DHT22;31763;48.180;7.904;2022-12-29T16:59:23;10.00;99.90
46029;DHT22;31763;48.180;7.904;2022-12-29T17:01:56;10.00;99.90
46029;DHT22;31763;48.180;7.904;2022-12-29T17:04:24;10.00;99.90
46029;DHT22;31763;48.180;7.904;2022-12-29T17:06:51;9.90;99.90
46029;DHT22;31763;48.180;7.904;2022-12-29T17:09:28;9.90;99.90
46029;DHT22;31763;48.180;7.904;2022-12-29T17:11:58;10.00;99.90
46029;DHT22;31763;48.180;7.904;2022-12-29T17:14:43;10.00;99.90
46029;DHT22;31763;48.180;7.904;2022-12-29T17:17:32;10.10;99.90
46029;DHT22;31763;48.180;7.904;2022-12-29T17:20:15;10.00;99.90
46029;DHT22;31763;48.180;7.904;2022-12-29T17:22:44;9.90;99.90
46029;DHT22;31763;48.180;7.904;2022-12-29T17:25:15;10.00;99.90
46029;DHT22;31763;48.180;7.904;2022-12-29T17:27:45;9.90;99.90
46029;DHT22;31763;48.180;7.904;2022-12-29T17:30:17;9.90;99.90
46029;DHT22;31763;48.180;7.904;2022-12-29T17:35:23;9.70;99.90
46029;DHT22;31763;48.180;7.904;2022-12-29T17:37:51;9.70;99.90
46029;DHT22;31763;48.180;7.904;2022-12-29T17:40:24;9.70;99.90
46029;DHT22;31763;48.180;7.904;2022-12-29T17:42:54;9.60;99.90
46029;DHT22;31763;48.180;7.904;2022-12-29T17:45:27;9.50;99.90
46029;DHT22;31763;48.180;7.904;2022-12-29T17:47:55;9.50;99.90
46029;DHT22;31763;48.180;7.904;2022-12-29T17:50:24;9.50;99.90
46029;DHT22;31763;48.180;7.904;2022-12-29T17:52:53;9.40;99.90
46029;DHT22;31763;48.180;7.904;2022-12-29T17:55:27;9.40;99.90
46029;DHT22;31763;48.180;7.904;2022-12-29T17:58:23;9.30;99.90
46029;DHT22;31763;48.180;7.904;2022-12-29T18:00:59;9.30;99.90
46029;DHT22;31763;48.180;7.904;2022-12-29T18:03:30;9.30;99.90
46029;DHT22;31763;48.180;7.904;2022-12-29T18:06:02;9.30;99.90
46029;DHT22;31763;48.180;7.904;2022-12-29T18:08:31;9.30;99.90
46029;DHT22;31763;48.180;7.904;2022-12-29T18:11:00;9.30;99.90
46029;DHT22;31763;48.180;7.904;2022-12-29T18:13:29;9.30;99.90
46029;DHT22;31763;48.180;7.904;2022-12-29T18:16:12;9.30;99.90
46029;DHT22;31763;48.180;7.904;2022-12-29T18:18:39;9.30;99.90
46029;DHT22;31763;48.180;7.904;2022-12-29T18:21:17;9.30;99.90
46029;DHT22;31763;48.180;7.904;2022-12-29T18:23:46;9.30;99.90